sensor_id;sensor_type;location;lat;lon;timestamp;temperature;humidity
20174;DHT22;10246;50.620;7.232;2023-05-07T00:00:39;14.20;22.20
20174;DHT22;10246;50.620;7.232;2023-05-07T00:03:06;14.10;21.60
20174;DHT22;10246;50.620;7.232;2023-05-07T00:05:34;14.00;21.60
20174;DHT22;10246;50.620;7.232;2023-05-07T00:08:01;14.00;21.60
20174;DHT22;10246;50.620;7.232;2023-05-07T00:10:28;13.90;22.20
20174;DHT22;10246;50.620;7.232;2023-05-07T00:12:54;13.90;22.70
20174;DHT22;10246;50.620;7.232;2023-05-07T00:15:21;13.90;22.70
20174;DHT22;10246;50.620;7.232;2023-05-07T00:17:48;13.90;22.50
20174;DHT22;10246;50.620;7.232;2023-05-07T00:20:15;13.90;22.40
20174;DHT22;10246;50.620;7.232;2023-05-07T00:22:43;14.00;22.50
20174;DHT22;10246;50.620;7.232;2023-05-07T00:25:10;13.90;22.30
20174;DHT22;10246;50.620;7.232;2023-05-07T00:27:36;13.80;22.50
20174;DHT22;10246;50.620;7.232;2023-05-07T00:30:04;13.80;23.10
20174;DHT22;10246;50.620;7.232;2023-05-07T00:32:31;13.80;23.30
20174;DHT22;10246;50.620;7.232;2023-05-07T00:34:58;13.80;23.40
20174;DHT22;10246;50.620;7.232;2023-05-07T00:37:25;13.80;23.50
20174;DHT22;10246;50.620;7.232;2023-05-07T00:39:53;13.80;23.40
20174;DHT22;10246;50.620;7.232;2023-05-07T00:42:19;13.80;23.40
20174;DHT22;10246;50.620;7.232;2023-05-07T00:44:46;13.80;23.70
20174;DHT22;10246;50.620;7.232;2023-05-07T00:47:14;13.70;24.20
20174;DHT22;10246;50.620;7.232;2023-05-07T00:49:42;13.80;24.70
20174;DHT22;10246;50.620;7.232;2023-05-07T00:52:11;13.70;24.90
20174;DHT22;10246;50.620;7.232;2023-05-07T00:54:40;13.80;24.80
20174;DHT22;10246;50.620;7.232;2023-05-07T00:57:09;13.80;24.90
20174;DHT22;10246;50.620;7.232;2023-05-07T00:59:36;13.80;25.10
20174;DHT22;10246;50.620;7.232;2023-05-07T01:02:03;13.80;25.10
20174;DHT22;10246;50.620;7.232;2023-05-07T01:04:30;13.90;24.80
20174;DHT22;10246;50.620;7.232;2023-05-07T01:06:57;13.90;24.60
20174;DHT22;10246;50.620;7.232;2023-05-07T01:09:25;13.90;24.70
20174;DHT22;10246;50.620;7.232;2023-05-07T01:11:52;14.00;24.70
20174;DHT22;10246;50.620;7.232;2023-05-07T01:14:21;14.00;24.40
20174;DHT22;10246;50.620;7.232;2023-05-07T01:16:48;14.10;24.60
20174;DHT22;10246;50.620;7.232;2023-05-07T01:19:18;14.10;24.20
20174;DHT22;10246;50.620;7.232;2023-05-07T01:21:46;14.10;24.40
20174;DHT22;10246;50.620;7.232;2023-05-07T01:24:15;14.10;24.40
20174;DHT22;10246;50.620;7.232;2023-05-07T01:26:43;14.10;24.90
20174;DHT22;10246;50.620;7.232;2023-05-07T01:29:10;14.10;24.80
20174;DHT22;10246;50.620;7.232;2023-05-07T01:31:37;14.10;24.20
20174;DHT22;10246;50.620;7.232;2023-05-07T01:34:05;14.20;24.20
20174;DHT22;10246;50.620;7.232;2023-05-07T01:36:34;14.10;24.30
20174;DHT22;10246;50.620;7.232;2023-05-07T01:39:02;14.10;25.00
20174;DHT22;10246;50.620;7.232;2023-05-07T01:41:30;14.00;25.60
20174;DHT22;10246;50.620;7.232;2023-05-07T01:43:58;14.10;25.60
20174;DHT22;10246;50.620;7.232;2023-05-07T01:46:26;14.00;26.00
20174;DHT22;10246;50.620;7.232;2023-05-07T01:48:53;14.10;26.30
20174;DHT22;10246;50.620;7.232;2023-05-07T01:51:19;14.00;26.50
20174;DHT22;10246;50.620;7.232;2023-05-07T01:53:47;14.00;26.50
20174;DHT22;10246;50.620;7.232;2023-05-07T01:56:16;14.00;26.90
20174;DHT22;10246;50.620;7.232;2023-05-07T01:58:44;14.00;27.20
20174;DHT22;10246;50.620;7.232;2023-05-07T02:01:12;14.00;27.40
20174;DHT22;10246;50.620;7.232;2023-05-07T02:03:38;14.00;27.80
20174;DHT22;10246;50.620;7.232;2023-05-07T02:06:07;14.00;28.10
20174;DHT22;10246;50.620;7.232;2023-05-07T02:08:34;14.00;28.10
20174;DHT22;10246;50.620;7.232;2023-05-07T02:11:01;13.90;28.00
20174;DHT22;10246;50.620;7.232;2023-05-07T02:13:29;13.90;28.00
20174;DHT22;10246;50.620;7.232;2023-05-07T02:15:57;14.00;28.10
20174;DHT22;10246;50.620;7.232;2023-05-07T02:18:24;14.00;28.10
20174;DHT22;10246;50.620;7.232;2023-05-07T02:20:51;14.00;28.20
20174;DHT22;10246;50.620;7.232;2023-05-07T02:23:18;14.00;27.60
20174;DHT22;10246;50.620;7.232;2023-05-07T02:25:44;14.00;27.60
20174;DHT22;10246;50.620;7.232;2023-05-07T02:28:11;14.00;27.10
20174;DHT22;10246;50.620;7.232;2023-05-07T02:30:38;14.10;27.00
20174;DHT22;10246;50.620;7.232;2023-05-07T02:33:06;14.10;26.70
20174;DHT22;10246;50.620;7.232;2023-05-07T02:35:33;14.20;26.80
20174;DHT22;10246;50.620;7.232;2023-05-07T02:38:00;14.10;27.00
20174;DHT22;10246;50.620;7.232;2023-05-07T02:40:27;14.10;27.10
20174;DHT22;10246;50.620;7.232;2023-05-07T02:42:54;14.10;27.30
20174;DHT22;10246;50.620;7.232;2023-05-07T02:45:20;14.00;27.50
20174;DHT22;10246;50.620;7.232;2023-05-07T02:47:47;14.00;28.00
20174;DHT22;10246;50.620;7.232;2023-05-07T02:50:15;14.10;27.60
20174;DHT22;10246;50.620;7.232;2023-05-07T02:52:42;14.00;27.40
20174;DHT22;10246;50.620;7.232;2023-05-07T02:55:09;14.00;27.90
20174;DHT22;10246;50.620;7.232;2023-05-07T02:57:36;14.10;27.90
20174;DHT22;10246;50.620;7.232;2023-05-07T03:00:10;14.00;28.10
20174;DHT22;10246;50.620;7.232;2023-05-07T03:02:37;14.00;28.10
20174;DHT22;10246;50.620;7.232;2023-05-07T03:05:05;14.00;28.10
20174;DHT22;10246;50.620;7.232;2023-05-07T03:07:33;14.00;28.10
20174;DHT22;10246;50.620;7.232;2023-05-07T03:10:00;14.10;28.20
20174;DHT22;10246;50.620;7.232;2023-05-07T03:12:27;14.00;28.10
20174;DHT22;10246;50.620;7.232;2023-05-07T03:14:53;14.00;28.10
20174;DHT22;10246;50.620;7.232;2023-05-07T03:17:23;14.00;28.10
20174;DHT22;10246;50.620;7.232;2023-05-07T03:19:50;14.00;28.10
20174;DHT22;10246;50.620;7.232;2023-05-07T03:22:18;14.00;27.70
20174;DHT22;10246;50.620;7.232;2023-05-07T03:24:47;13.90;27.40
20174;DHT22;10246;50.620;7.232;2023-05-07T03:27:13;13.90;27.60
20174;DHT22;10246;50.620;7.232;2023-05-07T03:29:40;14.00;27.60
20174;DHT22;10246;50.620;7.232;2023-05-07T03:32:07;14.00;26.80
20174;DHT22;10246;50.620;7.232;2023-05-07T03:34:33;14.00;27.00
20174;DHT22;10246;50.620;7.232;2023-05-07T03:37:00;14.00;27.20
20174;DHT22;10246;50.620;7.232;2023-05-07T03:39:27;14.00;28.10
20174;DHT22;10246;50.620;7.232;2023-05-07T03:41:55;14.00;28.10
20174;DHT22;10246;50.620;7.232;2023-05-07T03:44:21;14.00;27.80
20174;DHT22;10246;50.620;7.232;2023-05-07T03:46:48;14.00;27.90
20174;DHT22;10246;50.620;7.232;2023-05-07T03:49:15;14.00;27.50
20174;DHT22;10246;50.620;7.232;2023-05-07T03:51:41;14.00;28.10
20174;DHT22;10246;50.620;7.232;2023-05-07T03:54:08;14.00;28.10
20174;DHT22;10246;50.620;7.232;2023-05-07T03:56:35;14.00;28.10
20174;DHT22;10246;50.620;7.232;2023-05-07T03:59:03;13.90;28.10
20174;DHT22;10246;50.620;7.232;2023-05-07T04:01:30;14.00;28.10
20174;DHT22;10246;50.620;7.232;2023-05-07T04:03:56;14.00;28.10
20174;DHT22;10246;50.620;7.232;2023-05-07T04:06:23;14.00;28.10
20174;DHT22;10246;50.620;7.232;2023-05-07T04:08:50;14.00;28.10
20174;DHT22;10246;50.620;7.232;2023-05-07T04:11:17;14.00;28.10
20174;DHT22;10246;50.620;7.232;2023-05-07T04:13:43;14.00;28.10
20174;DHT22;10246;50.620;7.232;2023-05-07T04:16:12;14.10;28.20
20174;DHT22;10246;50.620;7.232;2023-05-07T04:18:38;14.10;28.20
20174;DHT22;10246;50.620;7.232;2023-05-07T04:21:05;14.10;28.20
20174;DHT22;10246;50.620;7.232;2023-05-07T04:23:32;14.10;28.20
20174;DHT22;10246;50.620;7.232;2023-05-07T04:25:59;14.00;28.10
20174;DHT22;10246;50.620;7.232;2023-05-07T04:28:26;14.00;28.10
20174;DHT22;10246;50.620;7.232;2023-05-07T04:30:52;14.10;28.20
20174;DHT22;10246;50.620;7.232;2023-05-07T04:33:20;14.00;28.30
20174;DHT22;10246;50.620;7.232;2023-05-07T04:35:47;14.00;28.90
20174;DHT22;10246;50.620;7.232;2023-05-07T04:38:14;14.00;29.80
20174;DHT22;10246;50.620;7.232;2023-05-07T04:40:40;14.00;29.30
20174;DHT22;10246;50.620;7.232;2023-05-07T04:43:07;14.10;29.80
20174;DHT22;10246;50.620;7.232;2023-05-07T04:45:34;14.10;29.30
20174;DHT22;10246;50.620;7.232;2023-05-07T04:48:01;14.10;29.10
20174;DHT22;10246;50.620;7.232;2023-05-07T04:50:29;14.20;28.60
20174;DHT22;10246;50.620;7.232;2023-05-07T04:52:56;14.20;28.20
20174;DHT22;10246;50.620;7.232;2023-05-07T04:55:23;14.20;28.70
20174;DHT22;10246;50.620;7.232;2023-05-07T04:57:50;14.20;29.10
20174;DHT22;10246;50.620;7.232;2023-05-07T05:00:17;14.30;29.10
20174;DHT22;10246;50.620;7.232;2023-05-07T05:02:45;14.30;29.30
20174;DHT22;10246;50.620;7.232;2023-05-07T05:05:11;14.30;28.60
20174;DHT22;10246;50.620;7.232;2023-05-07T05:07:39;14.30;28.70
20174;DHT22;10246;50.620;7.232;2023-05-07T05:10:06;14.40;28.40
20174;DHT22;10246;50.620;7.232;2023-05-07T05:12:33;14.30;29.10
20174;DHT22;10246;50.620;7.232;2023-05-07T05:15:00;14.30;29.70
20174;DHT22;10246;50.620;7.232;2023-05-07T05:17:26;14.30;30.20
20174;DHT22;10246;50.620;7.232;2023-05-07T05:19:53;14.40;30.60
20174;DHT22;10246;50.620;7.232;2023-05-07T05:22:20;14.40;30.50
20174;DHT22;10246;50.620;7.232;2023-05-07T05:24:48;14.40;30.80
20174;DHT22;10246;50.620;7.232;2023-05-07T05:27:14;14.50;31.30
20174;DHT22;10246;50.620;7.232;2023-05-07T05:29:41;14.40;31.00
20174;DHT22;10246;50.620;7.232;2023-05-07T05:32:08;14.40;31.10
20174;DHT22;10246;50.620;7.232;2023-05-07T05:34:35;14.40;31.80
20174;DHT22;10246;50.620;7.232;2023-05-07T05:37:02;14.40;32.20
20174;DHT22;10246;50.620;7.232;2023-05-07T05:39:28;14.40;32.30
20174;DHT22;10246;50.620;7.232;2023-05-07T05:41:57;14.50;32.30
20174;DHT22;10246;50.620;7.232;2023-05-07T05:44:24;14.50;32.70
20174;DHT22;10246;50.620;7.232;2023-05-07T05:46:51;14.50;32.50
20174;DHT22;10246;50.620;7.232;2023-05-07T05:49:20;14.60;32.20
20174;DHT22;10246;50.620;7.232;2023-05-07T05:51:46;14.70;32.10
20174;DHT22;10246;50.620;7.232;2023-05-07T05:54:13;14.80;31.40
20174;DHT22;10246;50.620;7.232;2023-05-07T05:56:41;14.80;31.50
20174;DHT22;10246;50.620;7.232;2023-05-07T05:59:09;14.80;30.80
20174;DHT22;10246;50.620;7.232;2023-05-07T06:01:36;14.90;30.90
20174;DHT22;10246;50.620;7.232;2023-05-07T06:04:03;15.00;30.50
20174;DHT22;10246;50.620;7.232;2023-05-07T06:06:30;15.00;30.00
20174;DHT22;10246;50.620;7.232;2023-05-07T06:08:57;15.10;30.10
20174;DHT22;10246;50.620;7.232;2023-05-07T06:11:24;15.10;30.40
20174;DHT22;10246;50.620;7.232;2023-05-07T06:13:51;15.10;29.70
20174;DHT22;10246;50.620;7.232;2023-05-07T06:16:19;15.10;29.80
20174;DHT22;10246;50.620;7.232;2023-05-07T06:18:45;15.20;30.00
20174;DHT22;10246;50.620;7.232;2023-05-07T06:21:13;15.30;29.40
20174;DHT22;10246;50.620;7.232;2023-05-07T06:23:40;15.30;29.80
20174;DHT22;10246;50.620;7.232;2023-05-07T06:26:07;15.30;29.80
20174;DHT22;10246;50.620;7.232;2023-05-07T06:28:34;15.40;30.20
20174;DHT22;10246;50.620;7.232;2023-05-07T06:31:11;15.50;30.00
20174;DHT22;10246;50.620;7.232;2023-05-07T06:33:39;15.50;29.50
20174;DHT22;10246;50.620;7.232;2023-05-07T06:36:06;15.60;29.60
20174;DHT22;10246;50.620;7.232;2023-05-07T06:38:33;15.70;30.00
20174;DHT22;10246;50.620;7.232;2023-05-07T06:41:00;15.70;29.80
20174;DHT22;10246;50.620;7.232;2023-05-07T06:43:26;15.80;29.30
20174;DHT22;10246;50.620;7.232;2023-05-07T06:45:53;15.80;29.30
20174;DHT22;10246;50.620;7.232;2023-05-07T06:48:20;15.90;28.30
20174;DHT22;10246;50.620;7.232;2023-05-07T06:50:48;16.00;28.00
20174;DHT22;10246;50.620;7.232;2023-05-07T06:53:15;16.10;26.60
20174;DHT22;10246;50.620;7.232;2023-05-07T06:55:41;16.10;26.30
20174;DHT22;10246;50.620;7.232;2023-05-07T06:58:08;16.20;27.10
20174;DHT22;10246;50.620;7.232;2023-05-07T07:00:35;16.20;25.20
20174;DHT22;10246;50.620;7.232;2023-05-07T07:03:02;16.30;25.60
20174;DHT22;10246;50.620;7.232;2023-05-07T07:05:28;16.30;24.50
20174;DHT22;10246;50.620;7.232;2023-05-07T07:07:56;16.40;25.20
20174;DHT22;10246;50.620;7.232;2023-05-07T07:10:23;16.40;25.40
20174;DHT22;10246;50.620;7.232;2023-05-07T07:12:50;16.50;23.50
20174;DHT22;10246;50.620;7.232;2023-05-07T07:15:18;16.60;22.80
20174;DHT22;10246;50.620;7.232;2023-05-07T07:17:46;16.60;23.00
20174;DHT22;10246;50.620;7.232;2023-05-07T07:20:12;16.70;22.80
20174;DHT22;10246;50.620;7.232;2023-05-07T07:22:39;16.70;22.30
20174;DHT22;10246;50.620;7.232;2023-05-07T07:25:08;16.90;21.50
20174;DHT22;10246;50.620;7.232;2023-05-07T07:27:36;16.90;21.40
20174;DHT22;10246;50.620;7.232;2023-05-07T07:30:04;17.00;21.70
20174;DHT22;10246;50.620;7.232;2023-05-07T07:32:31;17.10;21.20
20174;DHT22;10246;50.620;7.232;2023-05-07T07:34:58;17.10;20.10
20174;DHT22;10246;50.620;7.232;2023-05-07T07:37:25;17.20;19.90
20174;DHT22;10246;50.620;7.232;2023-05-07T07:39:53;17.40;18.40
20174;DHT22;10246;50.620;7.232;2023-05-07T07:42:21;17.50;17.20
20174;DHT22;10246;50.620;7.232;2023-05-07T07:44:48;17.50;16.30
20174;DHT22;10246;50.620;7.232;2023-05-07T07:47:15;17.50;15.90
20174;DHT22;10246;50.620;7.232;2023-05-07T07:49:41;17.60;17.30
20174;DHT22;10246;50.620;7.232;2023-05-07T07:52:08;17.70;14.80
20174;DHT22;10246;50.620;7.232;2023-05-07T07:54:35;17.80;15.50
20174;DHT22;10246;50.620;7.232;2023-05-07T07:57:01;18.00;13.50
20174;DHT22;10246;50.620;7.232;2023-05-07T07:59:32;18.00;12.80
20174;DHT22;10246;50.620;7.232;2023-05-07T08:01:59;18.10;12.30
20174;DHT22;10246;50.620;7.232;2023-05-07T08:04:25;18.10;11.30
20174;DHT22;10246;50.620;7.232;2023-05-07T08:06:52;18.10;11.20
20174;DHT22;10246;50.620;7.232;2023-05-07T08:09:20;18.20;10.70
20174;DHT22;10246;50.620;7.232;2023-05-07T08:11:47;18.30;10.60
20174;DHT22;10246;50.620;7.232;2023-05-07T08:14:14;18.30;10.80
20174;DHT22;10246;50.620;7.232;2023-05-07T08:16:43;18.40;10.90
20174;DHT22;10246;50.620;7.232;2023-05-07T08:19:10;18.50;9.70
20174;DHT22;10246;50.620;7.232;2023-05-07T08:21:38;18.50;9.80
20174;DHT22;10246;50.620;7.232;2023-05-07T08:24:06;18.60;10.00
20174;DHT22;10246;50.620;7.232;2023-05-07T08:26:33;18.70;10.50
20174;DHT22;10246;50.620;7.232;2023-05-07T08:29:01;18.80;12.40
20174;DHT22;10246;50.620;7.232;2023-05-07T08:31:28;18.80;10.30
20174;DHT22;10246;50.620;7.232;2023-05-07T08:33:56;18.80;9.00
20174;DHT22;10246;50.620;7.232;2023-05-07T08:36:23;18.80;8.50
20174;DHT22;10246;50.620;7.232;2023-05-07T08:38:51;18.80;8.00
20174;DHT22;10246;50.620;7.232;2023-05-07T08:41:17;18.70;7.60
20174;DHT22;10246;50.620;7.232;2023-05-07T08:43:47;18.70;7.90
20174;DHT22;10246;50.620;7.232;2023-05-07T08:46:17;18.80;8.20
20174;DHT22;10246;50.620;7.232;2023-05-07T08:48:44;18.90;5.30
20174;DHT22;10246;50.620;7.232;2023-05-07T08:51:18;19.00;4.40
20174;DHT22;10246;50.620;7.232;2023-05-07T08:53:46;19.00;4.50
20174;DHT22;10246;50.620;7.232;2023-05-07T08:56:14;19.10;3.80
20174;DHT22;10246;50.620;7.232;2023-05-07T08:58:41;19.20;3.60
20174;DHT22;10246;50.620;7.232;2023-05-07T09:01:12;19.30;3.80
20174;DHT22;10246;50.620;7.232;2023-05-07T09:03:39;19.40;2.90
20174;DHT22;10246;50.620;7.232;2023-05-07T09:06:06;19.50;2.70
20174;DHT22;10246;50.620;7.232;2023-05-07T09:08:35;19.60;2.10
20174;DHT22;10246;50.620;7.232;2023-05-07T09:11:02;19.70;1.70
20174;DHT22;10246;50.620;7.232;2023-05-07T09:13:29;20.00;1.70
20174;DHT22;10246;50.620;7.232;2023-05-07T09:15:56;20.10;1.00
20174;DHT22;10246;50.620;7.232;2023-05-07T09:18:23;20.30;1.00
20174;DHT22;10246;50.620;7.232;2023-05-07T09:20:50;20.40;1.00
20174;DHT22;10246;50.620;7.232;2023-05-07T09:23:17;20.40;1.00
20174;DHT22;10246;50.620;7.232;2023-05-07T09:25:45;20.60;1.00
20174;DHT22;10246;50.620;7.232;2023-05-07T09:28:12;20.60;1.00
20174;DHT22;10246;50.620;7.232;2023-05-07T09:30:39;20.70;1.00
20174;DHT22;10246;50.620;7.232;2023-05-07T09:33:05;20.90;1.00
20174;DHT22;10246;50.620;7.232;2023-05-07T09:35:32;21.10;1.00
20174;DHT22;10246;50.620;7.232;2023-05-07T09:38:00;21.30;1.00
20174;DHT22;10246;50.620;7.232;2023-05-07T09:40:28;21.50;1.00
20174;DHT22;10246;50.620;7.232;2023-05-07T09:43:08;21.60;1.00
20174;DHT22;10246;50.620;7.232;2023-05-07T09:45:36;21.90;1.00
20174;DHT22;10246;50.620;7.232;2023-05-07T09:48:05;22.10;1.00
20174;DHT22;10246;50.620;7.232;2023-05-07T09:50:35;22.30;1.00
20174;DHT22;10246;50.620;7.232;2023-05-07T09:53:03;22.30;1.00
20174;DHT22;10246;50.620;7.232;2023-05-07T09:55:30;22.30;1.00
20174;DHT22;10246;50.620;7.232;2023-05-07T09:57:59;22.60;1.00
20174;DHT22;10246;50.620;7.232;2023-05-07T10:00:28;22.60;1.00
20174;DHT22;10246;50.620;7.232;2023-05-07T10:02:57;22.60;1.00
20174;DHT22;10246;50.620;7.232;2023-05-07T10:05:25;22.60;1.00
20174;DHT22;10246;50.620;7.232;2023-05-07T10:07:52;22.80;1.00
20174;DHT22;10246;50.620;7.232;2023-05-07T10:10:20;22.70;1.00
20174;DHT22;10246;50.620;7.232;2023-05-07T10:12:47;22.90;1.00
20174;DHT22;10246;50.620;7.232;2023-05-07T10:15:16;22.90;1.00
20174;DHT22;10246;50.620;7.232;2023-05-07T10:17:44;23.10;1.00
20174;DHT22;10246;50.620;7.232;2023-05-07T10:20:11;23.30;1.00
20174;DHT22;10246;50.620;7.232;2023-05-07T10:22:40;23.40;1.00
20174;DHT22;10246;50.620;7.232;2023-05-07T10:25:14;23.60;1.00
20174;DHT22;10246;50.620;7.232;2023-05-07T10:27:42;23.70;1.00
20174;DHT22;10246;50.620;7.232;2023-05-07T10:30:19;23.90;1.00
20174;DHT22;10246;50.620;7.232;2023-05-07T10:32:49;24.10;1.00
20174;DHT22;10246;50.620;7.232;2023-05-07T10:35:24;24.20;1.00
20174;DHT22;10246;50.620;7.232;2023-05-07T10:37:51;24.20;1.00
20174;DHT22;10246;50.620;7.232;2023-05-07T10:40:20;24.30;1.00
20174;DHT22;10246;50.620;7.232;2023-05-07T10:42:54;24.30;1.00
20174;DHT22;10246;50.620;7.232;2023-05-07T10:45:23;24.60;1.00
20174;DHT22;10246;50.620;7.232;2023-05-07T10:48:10;24.90;1.00
20174;DHT22;10246;50.620;7.232;2023-05-07T10:50:38;25.00;1.00
20174;DHT22;10246;50.620;7.232;2023-05-07T10:53:22;24.90;1.00
20174;DHT22;10246;50.620;7.232;2023-05-07T10:56:23;24.90;1.00
20174;DHT22;10246;50.620;7.232;2023-05-07T10:58:39;24.90;1.00
20174;DHT22;10246;50.620;7.232;2023-05-07T11:01:07;25.00;1.00
20174;DHT22;10246;50.620;7.232;2023-05-07T11:03:33;25.00;1.00
20174;DHT22;10246;50.620;7.232;2023-05-07T11:06:11;25.10;1.00
20174;DHT22;10246;50.620;7.232;2023-05-07T11:08:54;25.40;1.00
20174;DHT22;10246;50.620;7.232;2023-05-07T11:11:45;25.60;1.00
20174;DHT22;10246;50.620;7.232;2023-05-07T11:14:13;25.60;1.00
20174;DHT22;10246;50.620;7.232;2023-05-07T11:16:43;25.70;1.00
20174;DHT22;10246;50.620;7.232;2023-05-07T11:19:10;25.90;1.00
20174;DHT22;10246;50.620;7.232;2023-05-07T11:21:38;25.70;1.00
20174;DHT22;10246;50.620;7.232;2023-05-07T11:24:06;25.70;1.00
20174;DHT22;10246;50.620;7.232;2023-05-07T11:26:44;25.90;1.00
20174;DHT22;10246;50.620;7.232;2023-05-07T11:29:12;26.10;1.00
20174;DHT22;10246;50.620;7.232;2023-05-07T11:31:41;26.20;1.00
20174;DHT22;10246;50.620;7.232;2023-05-07T11:34:09;26.20;1.00
20174;DHT22;10246;50.620;7.232;2023-05-07T11:36:37;26.20;1.00
20174;DHT22;10246;50.620;7.232;2023-05-07T11:39:23;26.30;1.00
20174;DHT22;10246;50.620;7.232;2023-05-07T11:41:50;26.50;1.00
20174;DHT22;10246;50.620;7.232;2023-05-07T11:44:16;26.70;1.00
20174;DHT22;10246;50.620;7.232;2023-05-07T11:46:45;26.70;1.00
20174;DHT22;10246;50.620;7.232;2023-05-07T11:49:12;26.40;1.00
20174;DHT22;10246;50.620;7.232;2023-05-07T11:51:39;26.50;1.00
20174;DHT22;10246;50.620;7.232;2023-05-07T11:54:06;26.70;1.00
20174;DHT22;10246;50.620;7.232;2023-05-07T11:56:34;26.70;1.00
20174;DHT22;10246;50.620;7.232;2023-05-07T11:59:01;26.90;1.00
20174;DHT22;10246;50.620;7.232;2023-05-07T12:01:28;26.80;1.00
20174;DHT22;10246;50.620;7.232;2023-05-07T12:03:56;26.70;1.00
20174;DHT22;10246;50.620;7.232;2023-05-07T12:06:23;26.50;1.00
20174;DHT22;10246;50.620;7.232;2023-05-07T12:08:49;26.50;1.00
20174;DHT22;10246;50.620;7.232;2023-05-07T12:11:22;26.50;1.00
20174;DHT22;10246;50.620;7.232;2023-05-07T12:13:49;26.60;1.00
20174;DHT22;10246;50.620;7.232;2023-05-07T12:16:16;26.50;1.00
20174;DHT22;10246;50.620;7.232;2023-05-07T12:18:44;26.50;1.00
20174;DHT22;10246;50.620;7.232;2023-05-07T12:21:12;26.60;1.00
20174;DHT22;10246;50.620;7.232;2023-05-07T12:23:40;26.70;1.00
20174;DHT22;10246;50.620;7.232;2023-05-07T12:26:07;26.80;1.00
20174;DHT22;10246;50.620;7.232;2023-05-07T12:28:38;26.80;1.00
20174;DHT22;10246;50.620;7.232;2023-05-07T12:31:06;26.80;1.00
20174;DHT22;10246;50.620;7.232;2023-05-07T12:33:34;26.80;1.00
20174;DHT22;10246;50.620;7.232;2023-05-07T12:36:04;26.80;1.00
20174;DHT22;10246;50.620;7.232;2023-05-07T12:38:36;27.00;1.00
20174;DHT22;10246;50.620;7.232;2023-05-07T12:41:04;27.10;1.00
20174;DHT22;10246;50.620;7.232;2023-05-07T12:43:32;27.20;1.00
20174;DHT22;10246;50.620;7.232;2023-05-07T12:46:00;27.30;1.00
20174;DHT22;10246;50.620;7.232;2023-05-07T12:48:28;27.40;1.00
20174;DHT22;10246;50.620;7.232;2023-05-07T12:50:55;27.40;1.00
20174;DHT22;10246;50.620;7.232;2023-05-07T12:53:23;27.60;1.00
20174;DHT22;10246;50.620;7.232;2023-05-07T12:55:53;27.60;1.00
20174;DHT22;10246;50.620;7.232;2023-05-07T12:58:28;27.40;1.00
20174;DHT22;10246;50.620;7.232;2023-05-07T13:00:55;27.30;1.00
20174;DHT22;10246;50.620;7.232;2023-05-07T13:03:26;27.30;1.00
20174;DHT22;10246;50.620;7.232;2023-05-07T13:05:55;27.50;1.00
20174;DHT22;10246;50.620;7.232;2023-05-07T13:08:26;27.80;1.00
20174;DHT22;10246;50.620;7.232;2023-05-07T13:10:54;27.70;1.00
20174;DHT22;10246;50.620;7.232;2023-05-07T13:13:21;27.90;1.00
20174;DHT22;10246;50.620;7.232;2023-05-07T13:15:48;28.20;1.00
20174;DHT22;10246;50.620;7.232;2023-05-07T13:18:15;27.90;1.00
20174;DHT22;10246;50.620;7.232;2023-05-07T13:20:41;27.40;1.00
20174;DHT22;10246;50.620;7.232;2023-05-07T13:23:08;27.10;1.00
20174;DHT22;10246;50.620;7.232;2023-05-07T13:25:35;26.80;1.00
20174;DHT22;10246;50.620;7.232;2023-05-07T13:28:03;26.60;1.00
20174;DHT22;10246;50.620;7.232;2023-05-07T13:30:30;26.60;1.00
20174;DHT22;10246;50.620;7.232;2023-05-07T13:32:56;26.60;1.00
20174;DHT22;10246;50.620;7.232;2023-05-07T13:35:23;26.50;1.00
20174;DHT22;10246;50.620;7.232;2023-05-07T13:37:50;26.40;1.00
20174;DHT22;10246;50.620;7.232;2023-05-07T13:40:17;26.40;1.00
20174;DHT22;10246;50.620;7.232;2023-05-07T13:42:45;26.20;1.00
20174;DHT22;10246;50.620;7.232;2023-05-07T13:45:13;26.00;1.00
20174;DHT22;10246;50.620;7.232;2023-05-07T13:47:42;25.90;1.00
20174;DHT22;10246;50.620;7.232;2023-05-07T13:50:10;25.70;1.00
20174;DHT22;10246;50.620;7.232;2023-05-07T13:52:39;25.60;1.00
20174;DHT22;10246;50.620;7.232;2023-05-07T13:55:07;25.20;1.00
20174;DHT22;10246;50.620;7.232;2023-05-07T13:57:34;25.00;1.00
20174;DHT22;10246;50.620;7.232;2023-05-07T14:00:01;24.80;1.00
20174;DHT22;10246;50.620;7.232;2023-05-07T14:02:29;24.70;1.00
20174;DHT22;10246;50.620;7.232;2023-05-07T14:04:56;24.70;1.00
20174;DHT22;10246;50.620;7.232;2023-05-07T14:07:22;24.60;1.00
20174;DHT22;10246;50.620;7.232;2023-05-07T14:09:49;24.50;1.00
20174;DHT22;10246;50.620;7.232;2023-05-07T14:12:16;24.40;1.00
20174;DHT22;10246;50.620;7.232;2023-05-07T14:14:42;24.40;1.00
20174;DHT22;10246;50.620;7.232;2023-05-07T14:17:10;24.40;1.00
20174;DHT22;10246;50.620;7.232;2023-05-07T14:19:38;24.30;1.00
20174;DHT22;10246;50.620;7.232;2023-05-07T14:22:05;24.10;1.00
20174;DHT22;10246;50.620;7.232;2023-05-07T14:24:32;24.00;1.00
20174;DHT22;10246;50.620;7.232;2023-05-07T14:26:59;23.90;1.00
20174;DHT22;10246;50.620;7.232;2023-05-07T14:29:25;23.80;1.00
20174;DHT22;10246;50.620;7.232;2023-05-07T14:31:52;23.70;1.00
20174;DHT22;10246;50.620;7.232;2023-05-07T14:34:19;23.60;1.00
20174;DHT22;10246;50.620;7.232;2023-05-07T14:36:47;23.40;1.00
20174;DHT22;10246;50.620;7.232;2023-05-07T14:39:13;23.20;1.00
20174;DHT22;10246;50.620;7.232;2023-05-07T14:41:40;22.90;1.00
20174;DHT22;10246;50.620;7.232;2023-05-07T14:44:07;22.60;1.00
20174;DHT22;10246;50.620;7.232;2023-05-07T14:46:33;22.40;1.00
20174;DHT22;10246;50.620;7.232;2023-05-07T14:49:01;22.30;1.00
20174;DHT22;10246;50.620;7.232;2023-05-07T14:51:28;22.20;1.00
20174;DHT22;10246;50.620;7.232;2023-05-07T14:53:56;22.00;1.00
20174;DHT22;10246;50.620;7.232;2023-05-07T14:56:23;21.90;1.00
20174;DHT22;10246;50.620;7.232;2023-05-07T14:58:51;21.70;1.00
20174;DHT22;10246;50.620;7.232;2023-05-07T15:01:18;21.60;1.00
20174;DHT22;10246;50.620;7.232;2023-05-07T15:03:44;21.40;1.00
20174;DHT22;10246;50.620;7.232;2023-05-07T15:06:11;21.20;1.00
20174;DHT22;10246;50.620;7.232;2023-05-07T15:08:38;21.00;1.00
20174;DHT22;10246;50.620;7.232;2023-05-07T15:11:06;20.80;1.00
20174;DHT22;10246;50.620;7.232;2023-05-07T15:13:33;20.80;1.00
20174;DHT22;10246;50.620;7.232;2023-05-07T15:16:00;20.80;1.00
20174;DHT22;10246;50.620;7.232;2023-05-07T15:18:29;20.80;1.00
20174;DHT22;10246;50.620;7.232;2023-05-07T15:20:59;20.80;1.00
20174;DHT22;10246;50.620;7.232;2023-05-07T15:23:27;20.80;1.00
20174;DHT22;10246;50.620;7.232;2023-05-07T15:25:54;20.70;1.00
20174;DHT22;10246;50.620;7.232;2023-05-07T15:28:24;20.60;1.00
20174;DHT22;10246;50.620;7.232;2023-05-07T15:30:51;20.40;1.00
20174;DHT22;10246;50.620;7.232;2023-05-07T15:33:18;20.30;1.00
20174;DHT22;10246;50.620;7.232;2023-05-07T15:35:45;20.10;1.00
20174;DHT22;10246;50.620;7.232;2023-05-07T15:38:12;20.00;1.00
20174;DHT22;10246;50.620;7.232;2023-05-07T15:40:39;20.00;1.00